CheckWX is a tool to help pilots better visualize weather data.  It is not intended as a substitute for an official pre-flight weather briefing.

12:20:27 UTC

EVRA METAR
Riga International Airport
Riga, Latvia
Current

30 mins ago

EVRA 221150Z 36014KT CAVOK M02/M10 Q1040 R36/190095 NOSIG
Observed
Feb-22 @ 11:50 UTC
Wind
  • 360° at 14 KTS
Visibility
10,000+ meters
Flight Rules
VFR
Cloud Levels
  • Clear skies
Temperature
-2°C / 28°F
Dewpoint
-10°C / 14°F
Humidity
55%
Altimeter
30.71" Hg
Pressure
1039.91 hPa
Previous

60 mins ago

EVRA 221120Z 35015KT CAVOK M02/M10 Q1040 R36/190095 NOSIG
Observed
Feb-22 @ 11:20 UTC
Wind
  • 350° at 15 KTS
Visibility
10,000+ meters
Flight Rules
VFR
Cloud Levels
  • Clear skies
Temperature
-2°C / 28°F
Dewpoint
-10°C / 14°F
Humidity
55%
Altimeter
30.71" Hg
Pressure
1039.91 hPa
Previous

2 hours ago

EVRA 221050Z 36015KT CAVOK M02/M11 Q1040 R36/190095 NOSIG
Observed
Feb-22 @ 10:50 UTC
Wind
  • 360° at 15 KTS
Visibility
10,000+ meters
Flight Rules
VFR
Cloud Levels
  • Clear skies
Temperature
-2°C / 28°F
Dewpoint
-11°C / 12°F
Humidity
51%
Altimeter
30.71" Hg
Pressure
1039.91 hPa